createdAt,value
2022-10-12T00:00:02.626Z,18.50
2022-10-12T00:03:21.388Z,17.53
2022-10-12T00:06:12.143Z,19.43
2022-10-12T00:09:00.002Z,17.73
2022-10-12T00:11:48.541Z,17.50
2022-10-12T00:14:38.050Z,15.50
2022-10-12T00:17:26.703Z,17.77
2022-10-12T00:20:14.848Z,16.53
2022-10-12T00:23:03.710Z,20.77
2022-10-12T00:25:51.894Z,18.33
2022-10-12T00:28:40.537Z,16.33
2022-10-12T00:31:30.489Z,15.40
2022-10-12T00:34:19.726Z,16.10
2022-10-12T00:37:08.451Z,17.67
2022-10-12T00:39:56.815Z,18.90
2022-10-12T00:42:45.111Z,17.47
2022-10-12T00:45:33.201Z,18.63
2022-10-12T00:48:22.124Z,14.23
2022-10-12T00:51:11.987Z,16.53
2022-10-12T00:54:06.249Z,17.03
2022-10-12T00:56:56.943Z,16.97
2022-10-12T00:59:49.605Z,16.97
2022-10-12T01:02:38.711Z,16.60
2022-10-12T01:05:28.451Z,18.97
2022-10-12T01:08:16.530Z,17.13
2022-10-12T01:11:05.287Z,17.13
2022-10-12T01:13:54.253Z,17.13
2022-10-12T01:16:53.042Z,19.53
2022-10-12T01:20:12.288Z,17.47
2022-10-12T01:23:24.262Z,16.53
2022-10-12T01:26:44.240Z,17.47
2022-10-12T01:30:06.700Z,16.57
2022-10-12T01:33:06.528Z,18.55
2022-10-12T01:36:03.544Z,19.13
2022-10-12T01:38:59.735Z,18.53
2022-10-12T01:41:54.059Z,18.37
2022-10-12T01:44:43.002Z,15.30
2022-10-12T01:47:32.113Z,17.73
2022-10-12T01:50:22.788Z,21.50
2022-10-12T01:53:21.119Z,20.27
2022-10-12T01:56:18.827Z,16.27
2022-10-12T01:59:16.818Z,14.63
2022-10-12T02:02:17.520Z,16.00
2022-10-12T02:05:11.933Z,18.53
2022-10-12T02:08:08.415Z,19.33
2022-10-12T02:11:01.037Z,14.93
2022-10-12T02:13:55.123Z,17.20
2022-10-12T02:16:48.037Z,16.63
2022-10-12T02:19:40.247Z,18.03
2022-10-12T02:22:34.098Z,22.77
2022-10-12T02:25:26.118Z,16.40
2022-10-12T02:28:17.123Z,18.87
2022-10-12T02:31:18.763Z,18.70
2022-10-12T02:34:11.882Z,18.40
2022-10-12T02:37:06.857Z,16.57
2022-10-12T02:40:02.215Z,24.57
2022-10-12T02:43:09.722Z,18.07
2022-10-12T02:46:02.014Z,17.33
2022-10-12T02:48:52.488Z,16.00
2022-10-12T02:51:43.708Z,17.60
2022-10-12T02:54:31.899Z,20.17
2022-10-12T02:57:19.957Z,14.83
2022-10-12T03:00:10.492Z,19.10
2022-10-12T03:02:58.937Z,17.33
2022-10-12T03:05:47.426Z,19.23
2022-10-12T03:08:36.797Z,16.90
2022-10-12T03:11:25.264Z,15.63
2022-10-12T03:14:16.413Z,16.05
2022-10-12T03:17:04.978Z,15.33
2022-10-12T03:19:53.368Z,14.53
2022-10-12T03:22:42.394Z,16.00
2022-10-12T03:25:30.369Z,20.27
2022-10-12T03:28:19.292Z,20.90
2022-10-12T03:31:07.689Z,14.27
2022-10-12T03:33:55.749Z,15.97
2022-10-12T03:36:44.273Z,18.17
2022-10-12T03:39:32.242Z,17.55
2022-10-12T03:42:20.482Z,15.80
2022-10-12T03:45:10.549Z,15.20
2022-10-12T03:48:03.746Z,17.17
2022-10-12T03:50:53.948Z,16.23
2022-10-12T03:53:45.579Z,17.53
2022-10-12T03:56:35.414Z,15.83
2022-10-12T03:59:23.703Z,17.27
2022-10-12T04:02:16.722Z,15.90
2022-10-12T04:05:08.207Z,15.13
2022-10-12T04:07:56.139Z,15.27
2022-10-12T04:10:45.553Z,17.30
2022-10-12T04:13:33.624Z,15.97
2022-10-12T04:16:23.352Z,15.47
2022-10-12T04:19:14.677Z,18.57
2022-10-12T04:22:19.086Z,14.03
2022-10-12T04:25:10.098Z,16.50
2022-10-12T04:27:58.045Z,15.90
2022-10-12T04:31:05.733Z,15.90
2022-10-12T04:34:03.073Z,15.03
2022-10-12T04:36:51.211Z,16.87
2022-10-12T04:39:39.153Z,18.53
2022-10-12T04:42:28.178Z,15.57
2022-10-12T04:45:16.477Z,16.23
2022-10-12T04:48:05.103Z,14.80
2022-10-12T04:50:54.168Z,16.97
2022-10-12T04:53:42.478Z,14.30
2022-10-12T04:56:32.328Z,13.60
2022-10-12T04:59:20.770Z,12.87
2022-10-12T05:02:12.928Z,15.37
2022-10-12T05:05:01.276Z,15.20
2022-10-12T05:07:49.295Z,16.60
2022-10-12T05:10:38.334Z,15.30
2022-10-12T05:13:28.486Z,17.50
2022-10-12T05:16:17.720Z,16.43
2022-10-12T05:19:06.036Z,15.90
2022-10-12T05:21:55.286Z,17.40
2022-10-12T05:24:43.285Z,17.00
2022-10-12T05:27:31.770Z,13.93
2022-10-12T05:30:19.986Z,13.20
2022-10-12T05:33:08.874Z,15.27
2022-10-12T05:35:57.559Z,19.53
2022-10-12T05:38:46.233Z,17.07
2022-10-12T05:41:34.369Z,17.63
2022-10-12T05:44:23.376Z,16.27
2022-10-12T05:47:12.669Z,14.20
2022-10-12T05:50:01.468Z,13.47
2022-10-12T05:52:49.735Z,14.40
2022-10-12T05:55:38.192Z,16.30
2022-10-12T05:58:28.879Z,15.50
2022-10-12T06:01:17.278Z,13.37
2022-10-12T06:04:05.898Z,16.13
2022-10-12T06:06:54.257Z,18.37
2022-10-12T06:09:44.341Z,16.87
2022-10-12T06:12:32.639Z,14.60
2022-10-12T06:15:20.719Z,13.50
2022-10-12T06:18:13.476Z,15.17
2022-10-12T06:21:21.485Z,13.85
2022-10-12T06:24:11.877Z,13.03
2022-10-12T06:26:59.985Z,15.93
2022-10-12T06:29:48.054Z,18.70
2022-10-12T06:32:38.473Z,18.60
2022-10-12T06:35:27.032Z,14.23
2022-10-12T06:38:17.248Z,14.80
2022-10-12T06:41:06.328Z,14.10
2022-10-12T06:43:55.314Z,17.33
2022-10-12T06:46:44.296Z,17.67
2022-10-12T06:49:33.017Z,12.43
2022-10-12T06:52:21.349Z,12.80
2022-10-12T06:55:11.694Z,19.37
2022-10-12T06:58:00.192Z,18.30
2022-10-12T07:00:48.762Z,16.43
2022-10-12T07:03:37.240Z,16.67
2022-10-12T07:06:25.334Z,14.30
2022-10-12T07:09:19.837Z,14.57
2022-10-12T07:12:14.312Z,17.77
2022-10-12T07:15:17.920Z,12.33
2022-10-12T07:18:39.714Z,12.93
2022-10-12T07:21:35.595Z,16.77
2022-10-12T07:24:23.925Z,13.93
2022-10-12T07:27:13.262Z,15.13
2022-10-12T07:30:02.349Z,14.10
2022-10-12T08:09:44.650Z,12.33
2022-10-12T08:28:01.156Z,12.17
2022-10-12T08:31:00.758Z,16.60
2022-10-12T08:38:09.456Z,15.20
2022-10-12T08:41:16.296Z,14.10
2022-10-12T08:53:05.268Z,16.15
2022-10-12T08:56:29.922Z,14.60
2022-10-12T09:00:25.348Z,18.73
2022-10-12T09:03:28.009Z,12.90
2022-10-12T09:06:21.997Z,12.53
2022-10-12T09:09:33.673Z,20.90
2022-10-12T09:12:33.963Z,16.63
2022-10-12T09:15:28.787Z,15.00
2022-10-12T09:18:21.487Z,14.13
2022-10-12T09:21:16.760Z,15.00
2022-10-12T09:25:02.564Z,21.77
2022-10-12T09:27:53.407Z,14.53
2022-10-12T09:30:49.244Z,13.60
2022-10-12T09:33:45.486Z,15.80
2022-10-12T09:36:36.378Z,11.30
2022-10-12T09:39:30.899Z,14.77
2022-10-12T09:42:19.408Z,12.93
2022-10-12T09:45:17.712Z,12.50
2022-10-12T09:48:25.827Z,15.67
2022-10-12T09:51:18.278Z,16.17
2022-10-12T09:54:25.140Z,11.93
2022-10-12T10:37:45.459Z,9.17
2022-10-12T10:40:35.552Z,8.93
2022-10-12T10:43:28.050Z,7.80
2022-10-12T10:46:22.946Z,12.27
2022-10-12T10:49:25.020Z,10.33
2022-10-12T10:52:23.939Z,11.93
2022-10-12T10:55:20.907Z,12.47
2022-10-12T10:58:29.425Z,8.90
2022-10-12T11:01:25.084Z,10.90
2022-10-12T11:04:22.528Z,7.87
2022-10-12T11:07:25.304Z,11.20
2022-10-12T11:10:25.142Z,8.40
2022-10-12T11:13:20.183Z,7.13
2022-10-12T11:16:25.405Z,7.40
2022-10-12T11:19:30.526Z,13.67
2022-10-12T11:22:24.206Z,8.87
2022-10-12T11:25:23.814Z,10.37
2022-10-12T11:28:16.565Z,7.40
2022-10-12T11:31:07.572Z,6.03
2022-10-12T11:37:48.174Z,7.87
2022-10-12T11:43:56.414Z,8.17
2022-10-12T11:46:49.572Z,8.75
2022-10-12T11:49:48.463Z,7.63
2022-10-12T11:52:41.407Z,10.60
2022-10-12T11:55:42.266Z,10.90
2022-10-12T11:58:55.782Z,8.50
2022-10-12T12:01:58.485Z,8.07
2022-10-12T12:04:52.084Z,10.57
2022-10-12T12:07:46.992Z,9.23
2022-10-12T12:11:04.274Z,10.20
2022-10-12T12:14:43.513Z,10.37
2022-10-12T12:17:38.537Z,11.93
2022-10-12T12:21:04.796Z,14.00
2022-10-12T12:23:57.151Z,12.47
2022-10-12T12:26:52.472Z,10.17
2022-10-12T12:29:41.100Z,12.00
2022-10-12T12:32:45.395Z,13.73
2022-10-12T12:35:40.001Z,14.93
2022-10-12T12:38:53.375Z,10.30
2022-10-12T12:49:24.846Z,10.30
2022-10-12T12:52:51.736Z,10.20
2022-10-12T12:56:29.116Z,12.13
2022-10-12T13:03:58.576Z,8.87
2022-10-12T13:07:35.189Z,9.18
2022-10-12T13:11:00.900Z,9.65
2022-10-12T13:14:05.573Z,10.10
2022-10-12T13:17:31.921Z,9.30
2022-10-12T13:20:27.738Z,8.77
2022-10-12T13:23:24.048Z,8.60
2022-10-12T13:26:26.266Z,8.30
2022-10-12T13:29:23.515Z,10.97
2022-10-12T13:32:28.279Z,9.83
2022-10-12T13:35:33.925Z,7.53
2022-10-12T13:38:27.007Z,11.63
2022-10-12T13:41:25.475Z,10.00
2022-10-12T13:44:34.374Z,11.10
2022-10-12T13:47:27.807Z,12.33
2022-10-12T13:50:21.444Z,10.13
2022-10-12T13:53:16.630Z,9.60
2022-10-12T13:56:14.654Z,7.80
2022-10-12T13:59:18.633Z,9.77
2022-10-12T14:02:25.643Z,8.53
2022-10-12T14:05:20.653Z,11.77
2022-10-12T14:08:23.818Z,8.03
2022-10-12T14:11:17.661Z,13.93
2022-10-12T14:14:17.540Z,12.40
2022-10-12T14:17:16.019Z,14.50
2022-10-12T14:20:26.970Z,11.37
2022-10-12T14:23:20.461Z,10.80
2022-10-12T14:44:35.983Z,10.73
2022-10-12T14:47:46.250Z,14.07
2022-10-12T14:50:44.009Z,11.50
2022-10-12T14:53:34.659Z,14.07
2022-10-12T14:56:25.595Z,9.83
2022-10-12T14:59:14.129Z,10.03
2022-10-12T15:02:09.822Z,12.57
2022-10-12T15:04:59.037Z,7.93
2022-10-12T15:07:47.708Z,9.47
2022-10-12T15:10:37.286Z,15.07
2022-10-12T15:13:25.121Z,15.63
2022-10-12T15:16:36.458Z,10.60
2022-10-12T15:19:33.865Z,11.83
2022-10-12T15:22:24.510Z,12.33
2022-10-12T15:25:20.350Z,16.73
2022-10-12T15:28:08.673Z,12.53
2022-10-12T15:31:16.945Z,10.50
2022-10-12T15:34:12.529Z,12.70
2022-10-12T15:37:00.262Z,9.47
2022-10-12T15:39:48.507Z,13.97
2022-10-12T15:42:38.164Z,9.37
2022-10-12T15:45:28.912Z,10.85
2022-10-12T15:48:22.425Z,11.70
2022-10-12T15:51:16.827Z,10.23
2022-10-12T15:54:05.312Z,12.23
2022-10-12T15:56:53.996Z,16.43
2022-10-12T15:59:42.471Z,15.20
2022-10-12T16:02:30.404Z,17.97
2022-10-12T16:05:21.841Z,20.87
2022-10-12T16:08:10.092Z,23.00
2022-10-12T16:10:58.385Z,16.37
2022-10-12T16:13:53.865Z,23.37
2022-10-12T16:16:45.014Z,20.23
2022-10-12T16:19:33.644Z,20.13
2022-10-12T16:22:22.417Z,21.40
2022-10-12T16:25:13.427Z,21.43
2022-10-12T16:28:01.150Z,25.30
2022-10-12T16:30:50.476Z,29.70
2022-10-12T16:33:38.855Z,34.37
2022-10-12T16:36:27.525Z,33.07
2022-10-12T16:39:15.888Z,26.53
2022-10-12T16:42:04.020Z,23.37
2022-10-12T16:44:52.367Z,26.03
2022-10-12T16:47:42.950Z,24.37
2022-10-12T16:50:31.519Z,22.40
2022-10-12T16:57:11.707Z,26.87
2022-10-12T17:00:00.461Z,19.00
2022-10-12T17:03:10.932Z,26.10
2022-10-12T17:06:10.183Z,25.33
2022-10-12T17:09:00.013Z,21.87
2022-10-12T17:11:48.934Z,36.60
2022-10-12T17:14:37.321Z,26.77
2022-10-12T17:17:27.544Z,24.70
2022-10-12T17:20:17.142Z,21.53
2022-10-12T17:23:05.436Z,27.83
2022-10-12T17:25:59.546Z,16.97
2022-10-12T17:28:47.857Z,32.13
2022-10-12T17:31:36.266Z,27.00
2022-10-12T17:34:26.193Z,26.97
2022-10-12T17:37:15.151Z,20.30
2022-10-12T17:40:03.645Z,26.13
2022-10-12T17:42:52.138Z,28.83
2022-10-12T17:45:42.072Z,23.20
2022-10-12T17:48:31.229Z,26.13
2022-10-12T17:51:19.675Z,30.17
2022-10-12T17:54:08.897Z,31.47
2022-10-12T17:56:57.815Z,30.00
2022-10-12T17:59:45.861Z,30.33
2022-10-12T18:02:34.075Z,25.17
2022-10-12T18:05:22.243Z,21.90
2022-10-12T18:08:10.376Z,27.10
2022-10-12T18:11:00.743Z,15.57
2022-10-12T18:13:50.794Z,21.63
2022-10-12T18:16:39.643Z,20.70
2022-10-12T18:19:27.785Z,18.33
2022-10-12T18:22:16.283Z,29.17
2022-10-12T18:25:07.213Z,23.87
2022-10-12T18:27:55.583Z,21.20
2022-10-12T18:30:49.482Z,20.17
2022-10-12T18:33:37.603Z,20.63
2022-10-12T18:36:26.831Z,21.33
2022-10-12T18:39:15.299Z,19.80
2022-10-12T18:42:03.540Z,21.17
2022-10-12T18:44:52.126Z,17.07
2022-10-12T18:47:40.768Z,22.07
2022-10-12T18:50:29.168Z,19.95
2022-10-12T18:53:17.529Z,21.07
2022-10-12T18:56:07.178Z,33.77
2022-10-12T18:58:56.417Z,34.70
2022-10-12T19:01:45.800Z,30.43
2022-10-12T19:04:34.150Z,25.67
2022-10-12T19:07:22.100Z,32.57
2022-10-12T19:10:11.412Z,31.77
2022-10-12T19:12:59.842Z,37.13
2022-10-12T19:15:48.038Z,28.17
2022-10-12T19:18:37.946Z,23.83
2022-10-12T19:21:27.261Z,25.90
2022-10-12T19:24:16.422Z,22.47
2022-10-12T19:27:04.517Z,26.40
2022-10-12T19:29:53.306Z,25.57
2022-10-12T19:32:42.378Z,33.10
2022-10-12T19:35:30.825Z,30.10
2022-10-12T19:38:19.974Z,29.37
2022-10-12T19:41:09.346Z,33.57
2022-10-12T19:43:58.537Z,33.70
2022-10-12T19:46:48.292Z,28.70
2022-10-12T19:49:38.448Z,32.50
2022-10-12T19:52:30.474Z,26.37
2022-10-12T19:55:19.061Z,32.07
2022-10-12T19:58:07.501Z,28.97
2022-10-12T20:01:01.843Z,37.93
2022-10-12T20:03:50.857Z,37.43
2022-10-12T20:06:39.708Z,37.90
2022-10-12T20:09:30.539Z,39.90
2022-10-12T20:12:21.104Z,37.30
2022-10-12T20:15:11.847Z,36.57
2022-10-12T20:18:00.378Z,36.60
2022-10-12T20:20:48.867Z,35.07
2022-10-12T20:23:38.951Z,32.17
2022-10-12T20:26:28.519Z,39.13
2022-10-12T20:29:16.549Z,33.53
2022-10-12T20:32:06.018Z,41.23
2022-10-12T20:34:55.598Z,35.13
2022-10-12T20:37:43.633Z,39.30
2022-10-12T20:40:31.717Z,37.53
2022-10-12T20:43:20.170Z,37.97
2022-10-12T20:46:13.952Z,39.20
2022-10-12T20:49:04.075Z,28.63
2022-10-12T20:51:53.599Z,30.93
2022-10-12T20:54:41.817Z,32.67
2022-10-12T20:57:30.263Z,30.97
2022-10-12T21:00:19.444Z,30.87
2022-10-12T21:03:07.530Z,28.20
2022-10-12T21:05:55.892Z,23.13
2022-10-12T21:08:48.433Z,24.80
2022-10-12T21:11:37.872Z,26.63
2022-10-12T21:14:26.167Z,28.90
2022-10-12T21:17:14.470Z,20.67
2022-10-12T21:20:02.871Z,23.43
2022-10-12T21:22:51.181Z,23.00
2022-10-12T21:25:39.421Z,28.57
2022-10-12T21:28:27.487Z,23.23
2022-10-12T21:31:16.522Z,23.97
2022-10-12T21:34:07.236Z,23.07
2022-10-12T21:36:55.224Z,21.13
2022-10-12T21:39:43.141Z,25.47
2022-10-12T21:42:31.091Z,23.90
2022-10-12T21:45:19.276Z,20.53
2022-10-12T21:48:08.013Z,21.40
2022-10-12T21:50:58.615Z,20.63
2022-10-12T21:53:47.364Z,20.63
2022-10-12T21:56:37.133Z,19.90
2022-10-12T21:59:26.048Z,19.60
2022-10-12T22:02:14.309Z,19.80
2022-10-12T22:05:03.720Z,22.20
2022-10-12T22:07:51.811Z,18.57
2022-10-12T22:10:40.489Z,19.17
2022-10-12T22:13:29.487Z,19.13
2022-10-12T22:16:19.781Z,18.03
2022-10-12T22:19:13.665Z,20.03
2022-10-12T22:22:01.457Z,18.60
2022-10-12T22:24:50.177Z,19.67
2022-10-12T22:27:38.078Z,21.90
2022-10-12T22:30:25.960Z,19.93
2022-10-12T22:33:14.064Z,19.63
2022-10-12T22:36:04.818Z,17.83
2022-10-12T22:38:53.254Z,19.27
2022-10-12T22:41:41.036Z,18.40
2022-10-12T22:44:29.148Z,20.07
2022-10-12T22:47:19.075Z,19.83
2022-10-12T22:50:08.303Z,17.17
2022-10-12T22:52:56.469Z,20.67
2022-10-12T22:55:46.283Z,19.07
2022-10-12T22:58:35.346Z,19.43
2022-10-12T23:01:24.654Z,23.73
2022-10-12T23:04:13.045Z,20.70
2022-10-12T23:07:02.973Z,18.97
2022-10-12T23:09:51.530Z,24.00
2022-10-12T23:12:40.017Z,17.37
2022-10-12T23:15:28.354Z,17.37
2022-10-12T23:18:16.650Z,20.00
2022-10-12T23:21:10.257Z,18.73
2022-10-12T23:23:59.417Z,19.97
2022-10-12T23:26:47.649Z,20.97
2022-10-12T23:29:35.569Z,18.87
2022-10-12T23:32:23.837Z,17.93
2022-10-12T23:35:11.952Z,18.37
2022-10-12T23:38:00.355Z,18.27
2022-10-12T23:40:48.517Z,22.80
2022-10-12T23:43:37.239Z,23.20
2022-10-12T23:46:25.956Z,26.23
2022-10-12T23:49:16.583Z,20.37
2022-10-12T23:52:06.843Z,21.30
2022-10-12T23:54:55.408Z,19.70
2022-10-12T23:57:47.038Z,17.37
